createdAt,value
2023-01-28T00:01:57.211Z,2.83
2023-01-28T00:04:25.319Z,2.60
2023-01-28T00:06:54.027Z,2.60
2023-01-28T00:09:20.974Z,2.70
2023-01-28T00:11:47.784Z,2.78
2023-01-28T00:14:14.771Z,2.67
2023-01-28T00:16:43.144Z,2.53
2023-01-28T00:19:09.821Z,2.65
2023-01-28T00:21:36.693Z,2.38
2023-01-28T00:24:03.603Z,2.60
2023-01-28T00:26:30.292Z,3.20
2023-01-28T00:28:56.896Z,2.60
2023-01-28T00:31:31.221Z,3.00
2023-01-28T00:33:58.209Z,2.55
2023-01-28T00:36:26.759Z,3.28
2023-01-28T00:38:55.996Z,2.90
2023-01-28T00:41:24.791Z,2.38
2023-01-28T00:43:52.075Z,2.70
2023-01-28T00:46:22.976Z,2.63
2023-01-28T00:48:49.663Z,2.58
2023-01-28T00:51:20.177Z,2.97
2023-01-28T00:53:47.995Z,3.05
2023-01-28T00:56:17.848Z,2.60
2023-01-28T00:58:44.934Z,2.78
2023-01-28T01:01:18.771Z,2.60
2023-01-28T01:03:46.239Z,2.50
2023-01-28T01:06:15.191Z,2.70
2023-01-28T01:08:46.749Z,3.22
2023-01-28T01:11:13.618Z,2.58
2023-01-28T01:13:40.433Z,2.70
2023-01-28T01:16:13.264Z,2.85
2023-01-28T01:18:42.225Z,2.60
2023-01-28T01:21:13.777Z,2.75
2023-01-28T01:23:40.954Z,2.88
2023-01-28T01:26:07.963Z,2.47
2023-01-28T01:28:34.764Z,2.85
2023-01-28T01:31:03.332Z,2.80
2023-01-28T01:33:30.878Z,2.83
2023-01-28T01:35:58.003Z,2.88
2023-01-28T01:38:25.735Z,3.97
2023-01-28T01:40:52.774Z,3.13
2023-01-28T01:43:24.019Z,2.78
2023-01-28T01:45:57.436Z,3.05
2023-01-28T01:48:34.371Z,3.03
2023-01-28T01:51:23.408Z,3.15
2023-01-28T01:53:54.821Z,3.10
2023-01-28T01:56:26.941Z,3.25
2023-01-28T01:58:56.279Z,3.28
2023-01-28T02:01:26.291Z,3.13
2023-01-28T02:04:09.045Z,2.58
2023-01-28T02:06:38.055Z,3.63
2023-01-28T02:09:38.558Z,3.28
2023-01-28T02:12:18.921Z,3.38
2023-01-28T02:15:21.713Z,3.60
2023-01-28T02:17:50.388Z,2.97
2023-01-28T02:20:25.837Z,3.50
2023-01-28T02:23:32.100Z,3.17
2023-01-28T02:25:58.640Z,3.90
2023-01-28T02:28:39.651Z,3.50
2023-01-28T02:31:21.555Z,3.38
2023-01-28T02:33:57.358Z,3.85
2023-01-28T02:36:34.922Z,3.58
2023-01-28T02:39:07.937Z,3.13
2023-01-28T02:41:44.269Z,3.30
2023-01-28T02:44:11.727Z,4.38
2023-01-28T02:46:56.948Z,3.75
2023-01-28T02:49:39.521Z,3.72
2023-01-28T02:52:16.197Z,3.55
2023-01-28T02:54:57.828Z,3.88
2023-01-28T02:57:48.850Z,3.42
2023-01-28T03:00:44.729Z,3.13
2023-01-28T03:03:24.933Z,3.50
2023-01-28T03:06:08.711Z,3.70
2023-01-28T03:09:04.138Z,3.28
2023-01-28T03:11:53.753Z,3.90
2023-01-28T03:14:40.530Z,4.00
2023-01-28T03:17:34.424Z,3.75
2023-01-28T03:20:20.086Z,3.35
2023-01-28T03:23:09.862Z,4.18
2023-01-28T03:25:57.628Z,4.20
2023-01-28T03:28:44.101Z,3.65
2023-01-28T03:31:35.843Z,3.40
2023-01-28T03:34:23.760Z,4.05
2023-01-28T03:36:51.660Z,4.25
2023-01-28T03:39:35.589Z,4.13
2023-01-28T03:44:48.675Z,4.18
2023-01-28T03:47:15.654Z,3.95
2023-01-28T03:49:49.364Z,4.00
2023-01-28T03:52:37.186Z,3.47
2023-01-28T03:55:13.603Z,3.80
2023-01-28T03:57:40.674Z,3.35
2023-01-28T04:00:08.247Z,5.25
2023-01-28T04:02:35.536Z,4.03
2023-01-28T04:05:07.012Z,4.15
2023-01-28T04:07:33.864Z,3.67
2023-01-28T04:10:02.073Z,3.53
2023-01-28T04:12:36.794Z,4.00
2023-01-28T04:15:15.695Z,3.75
2023-01-28T04:17:46.782Z,4.40
2023-01-28T04:20:13.983Z,3.88
2023-01-28T04:22:40.883Z,4.38
2023-01-28T04:25:08.629Z,4.30
2023-01-28T04:27:36.750Z,4.25
2023-01-28T04:30:04.043Z,4.22
2023-01-28T04:32:30.752Z,4.43
2023-01-28T04:34:57.382Z,3.95
2023-01-28T04:37:24.172Z,5.40
2023-01-28T04:39:50.692Z,6.30
2023-01-28T04:42:17.356Z,4.57
2023-01-28T04:44:43.959Z,4.55
2023-01-28T04:47:10.746Z,4.90
2023-01-28T04:49:37.323Z,3.88
2023-01-28T04:52:04.099Z,3.60
2023-01-28T04:54:34.143Z,3.30
2023-01-28T04:57:04.278Z,4.68
2023-01-28T04:59:30.783Z,4.50
2023-01-28T05:01:57.392Z,3.47
2023-01-28T05:04:24.108Z,3.45
2023-01-28T05:06:50.768Z,4.53
2023-01-28T05:09:17.541Z,3.90
2023-01-28T05:11:44.118Z,3.42
2023-01-28T05:14:10.779Z,3.90
2023-01-28T05:16:37.854Z,4.13
2023-01-28T05:19:06.594Z,3.60
2023-01-28T05:21:33.240Z,3.83
2023-01-28T05:23:59.909Z,4.18
2023-01-28T05:26:26.469Z,3.40
2023-01-28T05:28:53.111Z,3.50
2023-01-28T05:31:20.561Z,3.70
2023-01-28T05:33:53.822Z,3.70
2023-01-28T05:36:21.665Z,3.55
2023-01-28T05:38:48.333Z,3.92
2023-01-28T05:41:15.017Z,3.78
2023-01-28T05:43:41.593Z,3.90
2023-01-28T05:46:08.828Z,3.28
2023-01-28T05:48:35.430Z,3.83
2023-01-28T05:51:01.997Z,3.30
2023-01-28T05:53:28.557Z,3.60
2023-01-28T05:55:55.268Z,3.35
2023-01-28T05:58:22.317Z,3.60
2023-01-28T06:00:58.519Z,3.45
2023-01-28T06:03:25.905Z,3.50
2023-01-28T06:05:52.382Z,2.60
2023-01-28T06:08:19.157Z,3.00
2023-01-28T06:10:46.610Z,3.17
2023-01-28T06:13:15.502Z,3.38
2023-01-28T06:15:42.376Z,3.10
2023-01-28T06:18:09.081Z,3.00
2023-01-28T06:20:35.765Z,3.22
2023-01-28T06:23:02.497Z,3.70
2023-01-28T06:25:29.698Z,2.80
2023-01-28T06:28:05.411Z,2.90
2023-01-28T06:30:32.260Z,4.57
2023-01-28T06:32:59.212Z,2.75
2023-01-28T06:35:26.032Z,2.28
2023-01-28T06:37:53.294Z,2.30
2023-01-28T06:40:21.066Z,2.20
2023-01-28T06:42:47.696Z,2.85
2023-01-28T06:45:14.292Z,2.78
2023-01-28T06:47:41.142Z,2.50
2023-01-28T06:50:08.126Z,2.72
2023-01-28T06:52:34.642Z,2.42
2023-01-28T06:55:02.236Z,2.58
2023-01-28T06:57:29.517Z,2.25
2023-01-28T06:59:56.264Z,2.58
2023-01-28T07:02:22.890Z,2.95
2023-01-28T07:04:49.669Z,2.45
2023-01-28T07:07:16.399Z,2.55
2023-01-28T07:09:42.824Z,2.40
2023-01-28T07:12:09.508Z,2.42
2023-01-28T07:14:36.201Z,2.70
2023-01-28T07:17:02.851Z,2.70
2023-01-28T07:19:30.473Z,2.60
2023-01-28T07:22:03.716Z,3.38
2023-01-28T07:24:31.729Z,3.00
2023-01-28T07:26:59.083Z,2.78
2023-01-28T07:29:25.611Z,3.15
2023-01-28T07:31:52.299Z,2.97
2023-01-28T07:34:18.801Z,5.20
2023-01-28T07:36:45.490Z,3.38
2023-01-28T07:39:11.988Z,3.05
2023-01-28T07:41:38.772Z,3.00
2023-01-28T07:44:05.618Z,2.70
2023-01-28T07:46:34.335Z,2.85
2023-01-28T07:49:01.393Z,3.30
2023-01-28T07:51:28.224Z,3.58
2023-01-28T07:53:55.033Z,3.38
2023-01-28T07:56:21.707Z,3.10
2023-01-28T07:58:50.686Z,3.78
2023-01-28T08:01:19.954Z,3.20
2023-01-28T08:03:46.648Z,3.10
2023-01-28T08:06:13.481Z,3.63
2023-01-28T08:08:40.539Z,3.72
2023-01-28T08:11:08.994Z,3.63
2023-01-28T08:13:35.755Z,3.88
2023-01-28T08:16:02.883Z,3.80
2023-01-28T08:18:29.459Z,3.70
2023-01-28T08:20:57.346Z,3.63
2023-01-28T08:23:24.600Z,4.10
2023-01-28T08:25:51.238Z,4.72
2023-01-28T08:28:26.247Z,4.88
2023-01-28T08:30:53.381Z,4.15
2023-01-28T08:33:20.414Z,4.32
2023-01-28T08:35:47.180Z,3.70
2023-01-28T08:38:15.525Z,4.22
2023-01-28T08:40:42.274Z,4.22
2023-01-28T08:43:09.635Z,4.03
2023-01-28T08:45:36.088Z,4.03
2023-01-28T08:48:05.704Z,3.80
2023-01-28T08:50:35.174Z,2.97
2023-01-28T08:53:04.895Z,3.20
2023-01-28T08:55:32.209Z,3.60
2023-01-28T08:58:03.035Z,3.83
2023-01-28T09:00:29.868Z,3.65
2023-01-28T09:02:56.631Z,4.35
2023-01-28T09:05:23.432Z,4.13
2023-01-28T09:07:51.087Z,4.18
2023-01-28T09:10:24.481Z,4.43
2023-01-28T09:12:51.042Z,4.07
2023-01-28T09:15:17.979Z,3.40
2023-01-28T09:17:44.712Z,3.83
2023-01-28T09:20:13.111Z,3.80
2023-01-28T09:22:40.388Z,3.90
2023-01-28T09:25:07.866Z,3.72
2023-01-28T09:27:34.452Z,3.88
2023-01-28T09:30:01.061Z,4.18
2023-01-28T09:32:27.604Z,3.72
2023-01-28T09:34:54.135Z,2.65
2023-01-28T09:37:21.859Z,2.90
2023-01-28T09:39:48.366Z,3.05
2023-01-28T09:42:17.944Z,2.28
2023-01-28T09:45:09.478Z,2.47
2023-01-28T09:47:43.220Z,2.90
2023-01-28T09:50:17.949Z,7.63
2023-01-28T09:52:45.685Z,5.60
2023-01-28T09:55:30.377Z,4.20
2023-01-28T09:57:57.552Z,3.70
2023-01-28T10:00:30.202Z,4.20
2023-01-28T10:03:24.680Z,3.57
2023-01-28T10:06:14.549Z,3.90
2023-01-28T10:09:14.462Z,3.53
2023-01-28T10:12:08.891Z,4.47
2023-01-28T10:15:09.644Z,3.35
2023-01-28T10:17:46.738Z,4.03
2023-01-28T10:20:14.291Z,3.88
2023-01-28T10:23:16.171Z,3.75
2023-01-28T10:25:48.304Z,4.65
2023-01-28T10:28:43.786Z,4.78
2023-01-28T10:31:14.529Z,4.68
2023-01-28T10:33:41.083Z,4.00
2023-01-28T10:36:10.005Z,5.38
2023-01-28T10:38:36.647Z,4.63
2023-01-28T10:41:06.773Z,4.40
2023-01-28T10:43:45.652Z,4.10
2023-01-28T10:46:16.827Z,4.68
2023-01-28T10:48:48.819Z,4.25
2023-01-28T10:51:15.540Z,5.13
2023-01-28T10:53:46.353Z,5.53
2023-01-28T10:56:26.574Z,5.50
2023-01-28T10:59:18.127Z,5.63
2023-01-28T11:01:53.690Z,5.18
2023-01-28T11:04:26.587Z,5.25
2023-01-28T11:07:01.797Z,5.28
2023-01-28T11:09:35.762Z,5.38
2023-01-28T11:12:22.257Z,6.05
2023-01-28T11:14:55.493Z,4.75
2023-01-28T11:17:27.418Z,5.10
2023-01-28T11:19:56.373Z,4.50
2023-01-28T11:22:46.650Z,6.32
2023-01-28T11:25:22.263Z,5.78
2023-01-28T11:27:51.799Z,6.50
2023-01-28T11:30:21.870Z,5.22
2023-01-28T11:32:56.436Z,5.88
2023-01-28T11:35:31.007Z,5.00
2023-01-28T11:37:59.248Z,5.13
2023-01-28T11:40:27.307Z,5.20
2023-01-28T11:42:58.746Z,5.88
2023-01-28T11:45:44.031Z,5.95
2023-01-28T11:48:13.575Z,6.47
2023-01-28T11:50:48.774Z,5.47
2023-01-28T11:53:40.441Z,5.28
2023-01-28T11:56:30.276Z,4.88
2023-01-28T11:59:06.214Z,4.35
2023-01-28T12:02:07.131Z,4.35
2023-01-28T12:05:01.159Z,4.95
2023-01-28T12:07:28.061Z,4.43
2023-01-28T12:10:38.542Z,4.78
2023-01-28T12:13:16.156Z,4.57
2023-01-28T12:15:57.526Z,4.80
2023-01-28T12:18:43.479Z,4.90
2023-01-28T12:21:47.663Z,4.65
2023-01-28T12:24:47.547Z,4.43
2023-01-28T12:27:25.823Z,4.90
2023-01-28T12:30:24.328Z,4.07
2023-01-28T12:33:17.253Z,5.10
2023-01-28T12:36:16.339Z,4.45
2023-01-28T12:38:54.316Z,4.75
2023-01-28T12:41:28.757Z,4.68
2023-01-28T12:44:08.390Z,4.00
2023-01-28T12:46:55.831Z,4.32
2023-01-28T12:49:47.031Z,5.43
2023-01-28T12:52:17.072Z,4.82
2023-01-28T12:54:58.057Z,5.50
2023-01-28T12:57:30.040Z,5.32
2023-01-28T13:00:07.719Z,4.00
2023-01-28T13:02:42.769Z,4.28
2023-01-28T13:05:17.998Z,4.95
2023-01-28T13:07:53.693Z,4.28
2023-01-28T13:10:42.477Z,4.05
2023-01-28T13:13:18.790Z,4.97
2023-01-28T13:15:46.926Z,4.25
2023-01-28T13:18:31.280Z,5.57
2023-01-28T13:20:58.429Z,5.30
2023-01-28T13:23:37.608Z,5.68
2023-01-28T13:26:19.359Z,5.25
2023-01-28T13:28:47.325Z,5.63
2023-01-28T13:31:19.412Z,5.72
2023-01-28T13:34:02.219Z,5.20
2023-01-28T13:36:33.102Z,4.88
2023-01-28T13:39:08.733Z,5.82
2023-01-28T13:41:48.647Z,5.90
2023-01-28T13:44:33.556Z,3.65
2023-01-28T13:47:10.590Z,3.72
2023-01-28T13:49:57.730Z,3.10
2023-01-28T13:52:32.677Z,3.63
2023-01-28T13:55:04.177Z,3.22
2023-01-28T13:58:09.660Z,3.55
2023-01-28T14:00:52.177Z,2.92
2023-01-28T14:03:23.921Z,2.90
2023-01-28T14:06:28.067Z,3.40
2023-01-28T14:09:04.911Z,3.40
2023-01-28T14:11:59.670Z,3.60
2023-01-28T14:15:00.676Z,3.40
2023-01-28T14:17:48.896Z,3.42
2023-01-28T14:20:27.532Z,3.08
2023-01-28T14:23:04.734Z,3.60
2023-01-28T14:26:02.182Z,3.47
2023-01-28T14:28:57.211Z,3.35
2023-01-28T14:31:37.729Z,3.05
2023-01-28T14:34:31.519Z,3.30
2023-01-28T14:37:05.443Z,3.50
2023-01-28T14:39:53.685Z,3.65
2023-01-28T14:42:23.864Z,4.13
2023-01-28T14:45:06.817Z,3.97
2023-01-28T14:48:06.370Z,3.93
2023-01-28T14:51:05.696Z,4.40
2023-01-28T14:53:48.348Z,3.92
2023-01-28T14:56:42.007Z,3.42
2023-01-28T14:59:28.662Z,4.63
2023-01-28T15:01:58.472Z,5.00
2023-01-28T15:04:28.629Z,4.72
2023-01-28T15:06:56.401Z,6.38
2023-01-28T15:09:23.858Z,4.70
2023-01-28T15:11:56.318Z,4.82
2023-01-28T15:14:30.451Z,4.93
2023-01-28T15:16:58.091Z,5.15
2023-01-28T15:19:35.373Z,4.90
2023-01-28T15:22:05.709Z,4.70
2023-01-28T15:24:38.937Z,5.32
2023-01-28T15:27:05.657Z,5.38
2023-01-28T15:29:37.679Z,4.15
2023-01-28T15:32:05.516Z,4.93
2023-01-28T15:34:32.685Z,4.70
2023-01-28T15:37:00.806Z,4.40
2023-01-28T15:39:29.230Z,5.28
2023-01-28T15:42:03.388Z,6.25
2023-01-28T15:44:45.915Z,5.30
2023-01-28T15:47:33.331Z,4.55
2023-01-28T15:50:05.424Z,4.30
2023-01-28T15:52:43.415Z,5.47
2023-01-28T15:55:29.894Z,5.03
2023-01-28T15:57:56.679Z,4.32
2023-01-28T16:00:25.713Z,5.00
2023-01-28T16:02:56.561Z,5.47
2023-01-28T16:05:31.672Z,6.18
2023-01-28T16:07:59.156Z,6.03
2023-01-28T16:10:28.714Z,5.63
2023-01-28T16:13:27.292Z,5.63
2023-01-28T16:15:56.767Z,5.70
2023-01-28T16:18:40.811Z,4.88
2023-01-28T16:21:19.507Z,5.45
2023-01-28T16:23:53.287Z,5.88
2023-01-28T16:26:23.672Z,6.20
2023-01-28T16:28:51.363Z,5.80
2023-01-28T16:31:19.195Z,5.65
2023-01-28T16:33:46.532Z,6.35
2023-01-28T16:36:14.890Z,5.70
2023-01-28T16:38:42.888Z,6.05
2023-01-28T16:41:15.586Z,5.05
2023-01-28T16:43:42.325Z,3.37
2023-01-28T16:46:12.268Z,4.15
2023-01-28T16:48:39.232Z,4.35
2023-01-28T16:51:15.477Z,4.90
2023-01-28T16:53:43.758Z,5.22
2023-01-28T16:56:35.925Z,4.63
2023-01-28T16:59:05.259Z,5.40
2023-01-28T17:01:32.600Z,5.20
2023-01-28T17:04:00.061Z,4.40
2023-01-28T17:06:26.774Z,4.43
2023-01-28T17:08:53.521Z,5.22
2023-01-28T17:11:20.204Z,4.53
2023-01-28T17:13:46.838Z,5.55
2023-01-28T17:16:13.659Z,5.88
2023-01-28T17:18:40.989Z,5.63
2023-01-28T17:21:11.528Z,5.60
2023-01-28T17:23:42.763Z,5.88
2023-01-28T17:26:12.949Z,6.20
2023-01-28T17:28:41.071Z,8.50
2023-01-28T17:31:13.953Z,5.82
2023-01-28T17:33:41.886Z,5.40
2023-01-28T17:36:12.845Z,5.10
2023-01-28T17:38:39.735Z,14.77
2023-01-28T17:41:08.837Z,6.93
2023-01-28T17:43:35.654Z,5.60
2023-01-28T17:46:10.972Z,8.77
2023-01-28T17:48:37.878Z,17.08
2023-01-28T17:51:04.899Z,8.00
2023-01-28T17:53:31.558Z,5.85
2023-01-28T17:55:58.138Z,7.00
2023-01-28T17:58:24.782Z,7.82
2023-01-28T18:00:51.629Z,9.35
2023-01-28T18:03:18.358Z,6.70
2023-01-28T18:05:45.051Z,6.80
2023-01-28T18:08:12.302Z,8.68
2023-01-28T18:10:43.313Z,7.95
2023-01-28T18:13:10.072Z,13.68
2023-01-28T18:15:37.073Z,10.93
2023-01-28T18:18:03.998Z,8.13
2023-01-28T18:20:30.654Z,11.23
2023-01-28T18:22:57.481Z,13.65
2023-01-28T18:25:24.081Z,8.02
2023-01-28T18:27:52.565Z,7.55
2023-01-28T18:30:22.251Z,7.45
2023-01-28T18:32:48.983Z,6.93
2023-01-28T18:35:16.155Z,7.88
2023-01-28T18:37:43.449Z,8.23
2023-01-28T18:40:11.263Z,8.57
2023-01-28T18:42:38.100Z,8.40
2023-01-28T18:45:06.368Z,9.68
2023-01-28T18:47:33.779Z,9.32
2023-01-28T18:50:00.674Z,9.88
2023-01-28T18:52:27.860Z,10.98
2023-01-28T18:54:54.533Z,9.45
2023-01-28T18:57:21.816Z,8.77
2023-01-28T18:59:48.528Z,8.95
2023-01-28T19:02:16.511Z,8.48
2023-01-28T19:04:43.380Z,8.57
2023-01-28T19:07:11.760Z,8.60
2023-01-28T19:09:38.948Z,10.45
2023-01-28T19:12:06.257Z,9.55
2023-01-28T19:14:33.379Z,7.45
2023-01-28T19:17:00.271Z,8.95
2023-01-28T19:19:27.013Z,9.40
2023-01-28T19:21:54.000Z,10.38
2023-01-28T19:24:20.875Z,8.80
2023-01-28T19:26:47.558Z,8.70
2023-01-28T19:29:16.389Z,9.05
2023-01-28T19:31:44.604Z,7.68
2023-01-28T19:34:11.623Z,8.50
2023-01-28T19:36:38.833Z,8.40
2023-01-28T19:39:11.976Z,8.55
2023-01-28T19:41:39.546Z,12.13
2023-01-28T19:44:07.247Z,11.90
2023-01-28T19:46:36.336Z,9.45
2023-01-28T19:49:04.270Z,8.23
2023-01-28T19:51:40.018Z,5.13
2023-01-28T19:54:14.414Z,4.00
2023-01-28T19:56:41.255Z,4.25
2023-01-28T19:59:08.245Z,5.05
2023-01-28T20:01:36.147Z,4.70
2023-01-28T20:04:04.932Z,4.45
2023-01-28T20:06:38.079Z,4.60
2023-01-28T20:09:16.460Z,4.35
2023-01-28T20:11:43.515Z,4.57
2023-01-28T20:14:10.515Z,4.00
2023-01-28T20:16:37.473Z,3.28
2023-01-28T20:19:06.519Z,3.40
2023-01-28T20:21:35.657Z,3.55
2023-01-28T20:24:03.424Z,3.20
2023-01-28T20:26:33.344Z,3.92
2023-01-28T20:29:02.657Z,4.10
2023-01-28T20:31:29.807Z,3.80
2023-01-28T20:33:56.716Z,5.32
2023-01-28T20:36:23.566Z,4.70
2023-01-28T20:38:50.760Z,3.95
2023-01-28T20:41:23.457Z,4.22
2023-01-28T20:43:52.987Z,3.53
2023-01-28T20:46:22.461Z,3.40
2023-01-28T20:48:50.144Z,4.07
2023-01-28T20:51:26.423Z,3.78
2023-01-28T20:53:57.136Z,3.67
2023-01-28T20:56:26.140Z,3.75
2023-01-28T20:58:59.372Z,2.78
2023-01-28T21:01:30.974Z,2.95
2023-01-28T21:03:57.801Z,3.08
2023-01-28T21:06:33.885Z,3.13
2023-01-28T21:09:00.596Z,3.45
2023-01-28T21:11:27.582Z,3.72
2023-01-28T21:13:54.630Z,3.70
2023-01-28T21:16:22.301Z,3.22
2023-01-28T21:18:51.870Z,3.17
2023-01-28T21:21:22.677Z,6.30
2023-01-28T21:23:50.414Z,4.03
2023-01-28T21:26:18.311Z,4.90
2023-01-28T21:28:49.200Z,3.47
2023-01-28T21:31:18.719Z,3.88
2023-01-28T21:33:53.484Z,5.07
2023-01-28T21:36:20.977Z,4.25
2023-01-28T21:39:00.992Z,4.05
2023-01-28T21:41:28.031Z,4.00
2023-01-28T21:43:56.098Z,3.63
2023-01-28T21:46:28.516Z,3.53
2023-01-28T21:49:00.937Z,3.85
2023-01-28T21:51:40.913Z,4.05
2023-01-28T21:54:11.974Z,3.13
2023-01-28T21:56:39.154Z,3.70
2023-01-28T21:59:24.634Z,3.00
2023-01-28T22:01:51.358Z,3.03
2023-01-28T22:04:18.277Z,3.08
2023-01-28T22:06:45.486Z,3.00
2023-01-28T22:09:14.140Z,2.67
2023-01-28T22:11:42.590Z,2.88
2023-01-28T22:14:10.473Z,2.70
2023-01-28T22:16:37.455Z,2.88
2023-01-28T22:19:04.831Z,2.78
2023-01-28T22:21:32.952Z,7.32
2023-01-28T22:23:59.706Z,5.97
2023-01-28T22:26:26.501Z,3.10
2023-01-28T22:28:54.024Z,3.20
2023-01-28T22:31:20.924Z,3.00
2023-01-28T22:33:48.173Z,2.65
2023-01-28T22:36:16.138Z,3.30
2023-01-28T22:38:44.740Z,2.97
2023-01-28T22:41:19.909Z,2.90
2023-01-28T22:43:47.203Z,3.53
2023-01-28T22:46:16.361Z,3.10
2023-01-28T22:48:44.760Z,2.90
2023-01-28T22:51:20.057Z,3.50
2023-01-28T22:53:47.784Z,2.97
2023-01-28T22:56:15.877Z,3.17
2023-01-28T22:58:42.705Z,2.97
2023-01-28T23:01:09.336Z,3.38
2023-01-28T23:03:40.271Z,3.00
2023-01-28T23:06:08.270Z,2.70
2023-01-28T23:08:34.758Z,3.22
2023-01-28T23:11:03.055Z,4.38
2023-01-28T23:13:49.974Z,3.47
2023-01-28T23:16:35.472Z,3.47
2023-01-28T23:19:20.665Z,3.70
2023-01-28T23:22:06.239Z,3.70
2023-01-28T23:24:33.423Z,3.65
2023-01-28T23:27:03.042Z,4.07
2023-01-28T23:29:31.858Z,3.80
2023-01-28T23:32:05.660Z,3.78
2023-01-28T23:34:38.422Z,3.80
2023-01-28T23:37:07.479Z,3.97
2023-01-28T23:39:34.614Z,4.32
2023-01-28T23:42:20.730Z,4.05
2023-01-28T23:44:47.889Z,3.55
2023-01-28T23:47:14.974Z,3.92
2023-01-28T23:49:41.590Z,3.88
2023-01-28T23:52:08.472Z,4.40
2023-01-28T23:54:35.460Z,4.07
2023-01-28T23:57:02.711Z,3.63
2023-01-28T23:59:29.147Z,3.90
